createdAt,value
2023-03-01T00:02:03.240Z,10.37
2023-03-01T00:04:29.950Z,10.73
2023-03-01T00:06:56.583Z,10.93
2023-03-01T00:09:23.756Z,10.87
2023-03-01T00:11:50.429Z,10.50
2023-03-01T00:14:20.028Z,10.20
2023-03-01T00:16:46.817Z,9.73
2023-03-01T00:19:15.558Z,10.13
2023-03-01T00:21:42.534Z,10.10
2023-03-01T00:24:09.616Z,10.00
2023-03-01T00:26:36.306Z,10.13
2023-03-01T00:29:02.920Z,9.73
2023-03-01T00:31:30.518Z,10.30
2023-03-01T00:33:58.813Z,10.07
2023-03-01T00:36:33.943Z,10.63
2023-03-01T00:39:00.742Z,9.37
2023-03-01T00:41:27.898Z,10.57
2023-03-01T00:43:54.824Z,11.03
2023-03-01T00:46:23.567Z,11.10
2023-03-01T00:48:50.289Z,10.43
2023-03-01T00:51:21.680Z,11.53
2023-03-01T00:53:51.466Z,13.37
2023-03-01T00:56:18.326Z,13.57
2023-03-01T00:58:45.189Z,12.17
2023-03-01T01:01:19.863Z,12.57
2023-03-01T01:03:46.565Z,12.23
2023-03-01T01:06:17.993Z,12.03
2023-03-01T01:08:44.722Z,12.33
2023-03-01T01:11:12.586Z,12.43
2023-03-01T01:13:40.232Z,12.77
2023-03-01T01:16:08.278Z,12.33
2023-03-01T01:18:35.040Z,11.77
2023-03-01T01:21:06.146Z,11.53
2023-03-01T01:23:32.808Z,10.73
2023-03-01T01:26:04.496Z,11.07
2023-03-01T01:28:31.131Z,11.33
2023-03-01T01:30:57.828Z,11.03
2023-03-01T01:33:25.003Z,12.73
2023-03-01T01:35:51.671Z,11.93
2023-03-01T01:38:18.320Z,11.73
2023-03-01T01:40:47.659Z,11.87
2023-03-01T01:43:25.325Z,12.47
2023-03-01T01:45:52.299Z,11.50
2023-03-01T01:48:23.598Z,11.47
2023-03-01T01:50:53.839Z,11.40
2023-03-01T01:53:20.881Z,10.23
2023-03-01T01:55:49.979Z,11.73
2023-03-01T01:58:18.410Z,10.47
2023-03-01T02:00:45.191Z,10.30
2023-03-01T02:03:13.957Z,10.33
2023-03-01T02:05:59.716Z,10.67
2023-03-01T02:08:28.151Z,10.07
2023-03-01T02:10:57.117Z,11.00
2023-03-01T02:13:24.329Z,10.50
2023-03-01T02:15:51.067Z,11.07
2023-03-01T02:18:19.393Z,10.40
2023-03-01T02:20:59.791Z,10.70
2023-03-01T02:23:26.844Z,10.23
2023-03-01T02:26:10.149Z,10.73
2023-03-01T02:28:37.458Z,11.33
2023-03-01T02:31:24.843Z,11.50
2023-03-01T02:33:52.231Z,10.70
2023-03-01T02:36:20.942Z,11.27
2023-03-01T02:38:48.860Z,10.87
2023-03-01T02:41:17.263Z,10.23
2023-03-01T02:43:44.340Z,10.90
2023-03-01T02:46:16.126Z,10.70
2023-03-01T02:48:44.064Z,11.33
2023-03-01T02:51:30.127Z,11.00
2023-03-01T02:54:15.254Z,10.40
2023-03-01T02:56:42.645Z,10.70
2023-03-01T02:59:10.220Z,12.03
2023-03-01T03:01:40.254Z,11.53
2023-03-01T03:04:10.981Z,11.03
2023-03-01T03:06:38.525Z,12.73
2023-03-01T03:09:05.769Z,12.27
2023-03-01T03:11:33.555Z,12.67
2023-03-01T03:14:00.994Z,12.57
2023-03-01T03:16:27.891Z,14.60
2023-03-01T03:18:55.957Z,13.77
2023-03-01T03:21:22.596Z,13.57
2023-03-01T03:23:49.775Z,13.73
2023-03-01T03:26:16.444Z,12.57
2023-03-01T03:28:43.186Z,12.83
2023-03-01T03:31:09.880Z,13.73
2023-03-01T03:33:36.612Z,12.67
2023-03-01T03:36:03.483Z,13.20
2023-03-01T03:38:30.527Z,12.30
2023-03-01T03:41:05.336Z,13.23
2023-03-01T03:43:33.194Z,12.90
2023-03-01T03:46:01.031Z,12.67
2023-03-01T03:48:28.110Z,13.30
2023-03-01T03:50:55.911Z,12.83
2023-03-01T03:53:23.900Z,13.90
2023-03-01T03:55:50.591Z,12.83
2023-03-01T03:58:20.710Z,12.77
2023-03-01T04:00:48.556Z,12.43
2023-03-01T04:03:16.677Z,13.23
2023-03-01T04:05:43.516Z,14.47
2023-03-01T04:08:10.214Z,13.70
2023-03-01T04:10:38.587Z,14.70
2023-03-01T04:13:06.125Z,14.23
2023-03-01T04:15:33.850Z,13.53
2023-03-01T04:18:00.786Z,13.70
2023-03-01T04:20:29.495Z,13.93
2023-03-01T04:23:11.629Z,14.03
2023-03-01T04:25:40.175Z,14.47
2023-03-01T04:28:07.014Z,13.97
2023-03-01T04:30:36.745Z,14.53
2023-03-01T04:33:04.592Z,14.47
2023-03-01T04:35:32.010Z,14.80
2023-03-01T04:37:58.771Z,14.50
2023-03-01T04:40:25.673Z,14.37
2023-03-01T04:42:52.395Z,15.13
2023-03-01T04:45:19.082Z,14.93
2023-03-01T04:47:47.242Z,14.30
2023-03-01T04:50:16.312Z,14.70
2023-03-01T04:52:43.543Z,14.80
2023-03-01T04:55:10.718Z,15.43
2023-03-01T04:57:37.401Z,16.80
2023-03-01T05:00:21.005Z,16.67
2023-03-01T05:02:55.246Z,15.53
2023-03-01T05:05:26.729Z,15.37
2023-03-01T05:08:00.701Z,15.40
2023-03-01T05:10:30.117Z,15.80
2023-03-01T05:12:58.494Z,15.40
2023-03-01T05:15:26.627Z,15.57
2023-03-01T05:17:55.320Z,16.20
2023-03-01T05:20:25.465Z,15.97
2023-03-01T05:22:56.139Z,16.20
2023-03-01T05:25:22.817Z,16.27
2023-03-01T05:27:49.707Z,16.83
2023-03-01T05:30:16.548Z,16.43
2023-03-01T05:32:47.523Z,16.20
2023-03-01T05:35:15.059Z,16.03
2023-03-01T05:37:45.340Z,16.03
2023-03-01T05:40:16.732Z,15.30
2023-03-01T05:42:44.244Z,15.90
2023-03-01T05:45:11.299Z,16.10
2023-03-01T05:47:37.975Z,15.87
2023-03-01T05:50:04.797Z,16.33
2023-03-01T05:52:31.473Z,16.53
2023-03-01T05:54:58.182Z,16.93
2023-03-01T05:57:24.854Z,17.13
2023-03-01T05:59:51.592Z,16.97
2023-03-01T06:02:18.294Z,17.37
2023-03-01T06:04:45.070Z,15.30
2023-03-01T06:07:12.299Z,16.50
2023-03-01T06:09:39.375Z,17.17
2023-03-01T06:12:06.127Z,16.10
2023-03-01T06:14:32.994Z,15.63
2023-03-01T06:17:00.407Z,16.57
2023-03-01T06:19:27.166Z,16.13
2023-03-01T06:21:53.876Z,16.63
2023-03-01T06:24:20.670Z,16.43
2023-03-01T06:26:47.389Z,16.70
2023-03-01T06:29:15.761Z,15.60
2023-03-01T06:31:42.574Z,17.47
2023-03-01T06:34:09.260Z,16.30
2023-03-01T06:36:36.112Z,23.67
2023-03-01T06:39:02.857Z,18.43
2023-03-01T06:41:29.716Z,17.90
2023-03-01T06:43:56.491Z,18.07
2023-03-01T06:46:23.324Z,16.53
2023-03-01T06:48:53.298Z,17.33
2023-03-01T06:51:20.157Z,18.27
2023-03-01T06:53:47.278Z,17.33
2023-03-01T06:56:14.033Z,16.80
2023-03-01T06:58:40.742Z,18.50
2023-03-01T07:01:10.769Z,18.33
2023-03-01T07:03:37.746Z,18.00
2023-03-01T07:06:04.637Z,17.70
2023-03-01T07:08:31.476Z,17.57
2023-03-01T07:11:00.038Z,18.03
2023-03-01T07:13:26.867Z,18.53
2023-03-01T07:15:53.635Z,18.87
2023-03-01T07:18:20.386Z,17.83
2023-03-01T07:20:47.048Z,17.80
2023-03-01T07:23:13.941Z,18.23
2023-03-01T07:25:40.473Z,18.23
2023-03-01T07:28:07.093Z,17.60
2023-03-01T07:30:34.017Z,18.40
2023-03-01T07:33:01.051Z,18.17
2023-03-01T07:35:28.412Z,18.80
2023-03-01T07:37:55.021Z,19.17
2023-03-01T07:40:21.579Z,19.23
2023-03-01T07:42:48.216Z,20.70
2023-03-01T07:45:14.887Z,22.20
2023-03-01T07:47:41.480Z,20.33
2023-03-01T07:50:08.414Z,19.13
2023-03-01T07:52:35.036Z,15.83
2023-03-01T07:55:01.823Z,15.00
2023-03-01T07:57:28.354Z,12.87
2023-03-01T07:59:54.993Z,11.87
2023-03-01T08:02:21.633Z,11.33
2023-03-01T08:04:48.173Z,11.10
2023-03-01T08:07:14.740Z,11.27
2023-03-01T08:09:41.928Z,11.23
2023-03-01T08:12:08.547Z,11.63
2023-03-01T08:14:35.237Z,12.03
2023-03-01T08:17:03.995Z,12.77
2023-03-01T08:19:30.685Z,13.10
2023-03-01T08:21:59.234Z,14.30
2023-03-01T08:24:26.090Z,13.80
2023-03-01T08:26:52.721Z,14.00
2023-03-01T08:29:19.285Z,13.30
2023-03-01T08:31:46.123Z,13.77
2023-03-01T08:34:14.166Z,14.07
2023-03-01T08:36:41.941Z,12.10
2023-03-01T08:39:09.625Z,13.90
2023-03-01T08:41:36.545Z,13.67
2023-03-01T08:44:03.404Z,13.00
2023-03-01T08:46:31.886Z,14.23
2023-03-01T08:48:58.783Z,12.93
2023-03-01T08:51:26.292Z,14.00
2023-03-01T08:53:52.942Z,13.60
2023-03-01T08:56:20.486Z,13.90
2023-03-01T08:58:47.843Z,10.07
2023-03-01T09:01:16.017Z,11.60
2023-03-01T09:03:42.684Z,12.83
2023-03-01T09:06:09.789Z,10.33
2023-03-01T09:08:36.876Z,9.43
2023-03-01T09:11:04.617Z,12.20
2023-03-01T09:13:32.261Z,11.33
2023-03-01T09:15:59.267Z,11.20
2023-03-01T09:18:25.867Z,10.80
2023-03-01T09:20:52.523Z,11.33
2023-03-01T09:23:19.084Z,11.07
2023-03-01T09:25:45.719Z,12.27
2023-03-01T09:28:27.620Z,12.73
2023-03-01T09:30:58.714Z,10.27
2023-03-01T09:33:25.536Z,11.60
2023-03-01T09:35:57.144Z,9.37
2023-03-01T09:38:25.961Z,11.40
2023-03-01T09:40:53.854Z,10.00
2023-03-01T09:43:26.605Z,10.97
2023-03-01T09:45:54.900Z,11.70
2023-03-01T09:48:24.887Z,9.73
2023-03-01T09:50:52.269Z,7.33
2023-03-01T09:53:20.226Z,9.87
2023-03-01T09:55:55.710Z,10.30
2023-03-01T09:58:28.492Z,10.00
2023-03-01T10:00:57.307Z,9.93
2023-03-01T10:03:29.052Z,9.60
2023-03-01T10:06:00.782Z,10.20
2023-03-01T10:08:30.550Z,10.77
2023-03-01T10:10:57.492Z,8.73
2023-03-01T10:13:43.363Z,10.03
2023-03-01T10:16:15.324Z,8.97
2023-03-01T10:18:42.459Z,10.57
2023-03-01T10:21:09.147Z,9.53
2023-03-01T10:23:36.948Z,8.40
2023-03-01T10:26:24.334Z,8.13
2023-03-01T10:28:50.932Z,10.17
2023-03-01T10:31:21.356Z,9.50
2023-03-01T10:33:52.506Z,8.47
2023-03-01T10:36:19.182Z,9.33
2023-03-01T10:38:51.114Z,7.77
2023-03-01T10:41:18.025Z,8.70
2023-03-01T10:43:52.028Z,9.23
2023-03-01T10:46:35.365Z,8.87
2023-03-01T10:49:14.455Z,8.70
2023-03-01T10:51:42.010Z,10.23
2023-03-01T10:54:23.054Z,9.20
2023-03-01T10:56:57.193Z,8.33
2023-03-01T10:59:27.650Z,8.47
2023-03-01T11:02:24.103Z,8.63
2023-03-01T11:04:58.130Z,9.13
2023-03-01T11:07:25.203Z,7.70
2023-03-01T11:09:51.837Z,9.07
2023-03-01T11:12:18.729Z,10.40
2023-03-01T11:14:53.900Z,8.27
2023-03-01T11:17:26.938Z,9.53
2023-03-01T11:20:24.176Z,8.80
2023-03-01T11:22:53.601Z,8.87
2023-03-01T11:25:26.103Z,9.60
2023-03-01T11:27:53.012Z,9.50
2023-03-01T11:30:30.959Z,10.57
2023-03-01T11:33:12.394Z,9.93
2023-03-01T11:35:44.300Z,9.57
2023-03-01T11:38:17.804Z,9.80
2023-03-01T11:40:47.553Z,8.27
2023-03-01T11:43:35.189Z,9.10
2023-03-01T11:46:20.748Z,10.00
2023-03-01T11:49:12.083Z,10.60
2023-03-01T11:51:44.645Z,10.83
2023-03-01T11:54:25.177Z,8.57
2023-03-01T11:56:53.495Z,8.00
2023-03-01T11:59:39.040Z,9.97
2023-03-01T12:02:05.814Z,10.00
2023-03-01T12:04:51.344Z,9.93
2023-03-01T12:07:31.076Z,9.43
2023-03-01T12:10:16.565Z,9.43
2023-03-01T12:13:00.697Z,9.97
2023-03-01T12:15:35.307Z,10.60
2023-03-01T12:18:20.265Z,10.60
2023-03-01T12:20:46.842Z,9.23
2023-03-01T12:23:23.614Z,9.57
2023-03-01T12:25:53.324Z,8.83
2023-03-01T12:28:33.838Z,8.83
2023-03-01T12:31:13.122Z,9.17
2023-03-01T12:33:46.185Z,9.47
2023-03-01T12:36:24.149Z,9.70
2023-03-01T12:38:57.366Z,9.07
2023-03-01T12:41:33.196Z,9.60
2023-03-01T12:44:00.048Z,8.23
2023-03-01T12:46:26.787Z,8.57
2023-03-01T12:49:00.578Z,8.30
2023-03-01T12:51:29.731Z,7.60
2023-03-01T12:53:58.086Z,8.33
2023-03-01T12:56:26.246Z,7.23
2023-03-01T12:58:59.849Z,9.13
2023-03-01T13:01:29.895Z,6.77
2023-03-01T13:04:14.003Z,8.30
2023-03-01T13:06:59.581Z,8.87
2023-03-01T13:09:35.512Z,8.70
2023-03-01T13:12:06.051Z,8.40
2023-03-01T13:14:36.673Z,7.07
2023-03-01T13:17:03.513Z,9.10
2023-03-01T13:19:31.122Z,8.47
2023-03-01T13:21:57.721Z,7.37
2023-03-01T13:24:39.704Z,6.53
2023-03-01T13:27:09.676Z,8.47
2023-03-01T13:29:45.994Z,8.37
2023-03-01T13:32:34.530Z,9.17
2023-03-01T13:35:20.637Z,7.83
2023-03-01T13:37:47.921Z,7.90
2023-03-01T13:40:20.699Z,7.50
2023-03-01T13:43:04.140Z,7.37
2023-03-01T13:45:40.069Z,6.73
2023-03-01T13:48:18.257Z,8.60
2023-03-01T13:50:48.904Z,6.87
2023-03-01T13:53:18.390Z,7.77
2023-03-01T13:55:48.144Z,7.53
2023-03-01T13:58:20.881Z,8.90
2023-03-01T14:00:48.001Z,7.47
2023-03-01T14:03:19.672Z,7.87
2023-03-01T14:06:11.315Z,7.33
2023-03-01T14:08:42.139Z,7.53
2023-03-01T14:11:25.249Z,7.60
2023-03-01T14:14:10.916Z,7.10
2023-03-01T14:16:37.577Z,7.87
2023-03-01T14:19:30.995Z,7.03
2023-03-01T14:22:04.106Z,6.80
2023-03-01T14:24:33.905Z,7.83
2023-03-01T14:27:02.284Z,8.20
2023-03-01T14:29:35.217Z,6.60
2023-03-01T14:32:12.577Z,6.87
2023-03-01T14:34:43.677Z,7.53
2023-03-01T14:37:27.279Z,6.63
2023-03-01T14:39:54.697Z,6.80
2023-03-01T14:42:23.421Z,7.07
2023-03-01T14:44:51.625Z,6.17
2023-03-01T14:47:41.952Z,7.67
2023-03-01T14:50:22.513Z,7.63
2023-03-01T14:52:51.721Z,6.50
2023-03-01T14:55:23.378Z,7.10
2023-03-01T14:57:51.388Z,6.83
2023-03-01T15:00:22.793Z,5.40
2023-03-01T15:02:51.029Z,5.63
2023-03-01T15:05:26.578Z,6.80
2023-03-01T15:07:53.308Z,6.77
2023-03-01T15:10:24.742Z,6.30
2023-03-01T15:12:53.939Z,7.00
2023-03-01T15:15:31.283Z,5.97
2023-03-01T15:17:59.293Z,6.63
2023-03-01T15:20:28.507Z,6.63
2023-03-01T15:22:55.832Z,6.70
2023-03-01T15:25:23.664Z,6.90
2023-03-01T15:27:52.237Z,6.30
2023-03-01T15:30:26.938Z,6.50
2023-03-01T15:33:20.293Z,7.30
2023-03-01T15:35:55.045Z,7.03
2023-03-01T15:38:26.147Z,6.50
2023-03-01T15:40:52.979Z,6.07
2023-03-01T15:43:38.731Z,4.70
2023-03-01T15:46:05.715Z,6.50
2023-03-01T15:48:32.560Z,7.10
2023-03-01T15:51:00.430Z,6.77
2023-03-01T15:53:27.797Z,7.00
2023-03-01T15:55:54.951Z,6.07
2023-03-01T15:58:25.492Z,6.33
2023-03-01T16:01:02.089Z,6.93
2023-03-01T16:03:29.380Z,5.43
2023-03-01T16:05:56.185Z,7.53
2023-03-01T16:08:22.848Z,7.03
2023-03-01T16:10:51.066Z,6.90
2023-03-01T16:13:18.430Z,6.93
2023-03-01T16:15:45.140Z,6.37
2023-03-01T16:18:12.901Z,5.90
2023-03-01T16:20:40.272Z,6.13
2023-03-01T16:23:08.628Z,6.20
2023-03-01T16:25:36.464Z,6.87
2023-03-01T16:28:06.089Z,8.03
2023-03-01T16:30:32.882Z,9.57
2023-03-01T16:32:59.865Z,7.00
2023-03-01T16:35:26.705Z,7.23
2023-03-01T16:37:54.955Z,7.30
2023-03-01T16:40:21.956Z,15.60
2023-03-01T16:42:49.612Z,16.80
2023-03-01T16:45:24.382Z,8.13
2023-03-01T16:47:55.091Z,6.70
2023-03-01T16:50:22.611Z,6.80
2023-03-01T16:52:49.456Z,8.23
2023-03-01T16:55:16.259Z,8.60
2023-03-01T16:57:42.945Z,7.20
2023-03-01T17:00:14.225Z,7.53
2023-03-01T17:02:42.268Z,8.10
2023-03-01T17:05:11.030Z,7.83
2023-03-01T17:07:38.133Z,7.80
2023-03-01T17:10:05.941Z,8.63
2023-03-01T17:12:33.689Z,7.60
2023-03-01T17:15:00.568Z,7.17
2023-03-01T17:17:27.860Z,7.03
2023-03-01T17:19:54.589Z,9.23
2023-03-01T17:22:21.203Z,8.20
2023-03-01T17:24:47.874Z,8.13
2023-03-01T17:27:16.079Z,9.30
2023-03-01T17:29:42.756Z,7.60
2023-03-01T17:32:10.561Z,8.10
2023-03-01T17:34:38.180Z,7.70
2023-03-01T17:37:04.956Z,7.60
2023-03-01T17:39:36.463Z,8.13
2023-03-01T17:42:06.706Z,7.47
2023-03-01T17:44:34.786Z,7.73
2023-03-01T17:47:05.264Z,8.00
2023-03-01T17:49:32.843Z,10.93
2023-03-01T17:52:00.025Z,14.10
2023-03-01T17:54:26.826Z,17.27
2023-03-01T17:56:53.657Z,46.57
2023-03-01T17:59:20.377Z,15.67
2023-03-01T18:01:47.502Z,10.00
2023-03-01T18:04:14.468Z,8.07
2023-03-01T18:06:41.205Z,9.40
2023-03-01T18:09:08.127Z,8.27
2023-03-01T18:11:35.877Z,7.97
2023-03-01T18:14:03.132Z,8.20
2023-03-01T18:16:32.252Z,8.77
2023-03-01T18:18:59.923Z,8.83
2023-03-01T18:21:27.018Z,8.50
2023-03-01T18:23:53.923Z,9.37
2023-03-01T18:26:22.288Z,9.70
2023-03-01T18:28:50.974Z,6.97
2023-03-01T18:31:18.725Z,8.50
2023-03-01T18:33:46.432Z,9.00
2023-03-01T18:36:17.684Z,9.53
2023-03-01T18:38:44.370Z,8.07
2023-03-01T18:41:12.302Z,8.40
2023-03-01T18:43:39.041Z,8.93
2023-03-01T18:46:05.952Z,8.53
2023-03-01T18:48:32.816Z,8.50
2023-03-01T18:51:07.150Z,28.90
2023-03-01T18:53:33.921Z,13.80
2023-03-01T18:56:02.275Z,9.20
2023-03-01T18:58:29.391Z,7.57
2023-03-01T19:00:55.995Z,8.47
2023-03-01T19:03:23.152Z,7.80
2023-03-01T19:05:50.017Z,12.17
2023-03-01T19:08:16.795Z,11.23
2023-03-01T19:10:43.456Z,7.67
2023-03-01T19:13:11.054Z,5.97
2023-03-01T19:15:37.911Z,7.47
2023-03-01T19:18:05.595Z,7.17
2023-03-01T19:20:32.225Z,7.00
2023-03-01T19:22:58.906Z,5.57
2023-03-01T19:25:25.865Z,6.07
2023-03-01T19:27:52.548Z,5.73
2023-03-01T19:30:19.266Z,6.73
2023-03-01T19:32:46.328Z,7.83
2023-03-01T19:35:12.975Z,7.20
2023-03-01T19:37:39.719Z,6.90
2023-03-01T19:40:06.715Z,7.67
2023-03-01T19:42:34.034Z,6.97
2023-03-01T19:45:01.061Z,6.40
2023-03-01T19:47:27.849Z,7.10
2023-03-01T19:49:54.504Z,7.33
2023-03-01T19:52:21.184Z,7.20
2023-03-01T19:54:48.039Z,6.23
2023-03-01T19:57:15.188Z,7.50
2023-03-01T19:59:41.852Z,7.30
2023-03-01T20:02:09.547Z,6.67
2023-03-01T20:04:36.613Z,7.80
2023-03-01T20:07:03.289Z,7.87
2023-03-01T20:09:30.042Z,8.30
2023-03-01T20:11:56.727Z,8.57
2023-03-01T20:14:24.248Z,9.00
2023-03-01T20:16:51.545Z,7.80
2023-03-01T20:19:18.183Z,8.10
2023-03-01T20:21:44.828Z,7.63
2023-03-01T20:24:11.458Z,7.80
2023-03-01T20:26:38.343Z,4.33
2023-03-01T20:29:08.843Z,7.57
2023-03-01T20:31:36.192Z,7.50
2023-03-01T20:34:04.221Z,6.30
2023-03-01T20:36:31.418Z,7.57
2023-03-01T20:38:58.163Z,7.90
2023-03-01T20:41:28.717Z,7.73
2023-03-01T20:43:56.902Z,6.07
2023-03-01T20:46:25.959Z,6.57
2023-03-01T20:48:53.867Z,6.47
2023-03-01T20:51:20.497Z,7.20
2023-03-01T20:53:47.250Z,6.97
2023-03-01T20:56:15.324Z,6.10
2023-03-01T20:58:42.321Z,6.77
2023-03-01T21:01:10.116Z,7.57
2023-03-01T21:03:36.779Z,7.50
2023-03-01T21:06:06.270Z,6.57
2023-03-01T21:08:33.966Z,7.20
2023-03-01T21:11:00.938Z,7.07
2023-03-01T21:13:28.322Z,7.70
2023-03-01T21:15:56.237Z,7.47
2023-03-01T21:18:23.229Z,6.60
2023-03-01T21:20:49.874Z,7.20
2023-03-01T21:23:19.329Z,7.13
2023-03-01T21:25:46.007Z,8.50
2023-03-01T21:28:12.645Z,7.40
2023-03-01T21:30:39.434Z,7.00
2023-03-01T21:33:06.106Z,7.30
2023-03-01T21:35:32.747Z,7.77
2023-03-01T21:37:59.436Z,8.77
2023-03-01T21:40:26.262Z,7.60
2023-03-01T21:42:53.010Z,7.53
2023-03-01T21:45:19.637Z,7.90
2023-03-01T21:47:46.271Z,8.13
2023-03-01T21:50:13.167Z,8.27
2023-03-01T21:52:40.023Z,7.57
2023-03-01T21:55:07.306Z,8.63
2023-03-01T21:57:34.019Z,8.40
2023-03-01T22:00:00.733Z,7.70
2023-03-01T22:02:27.418Z,8.53
2023-03-01T22:04:57.605Z,8.47
2023-03-01T22:07:24.366Z,8.43
2023-03-01T22:09:51.379Z,8.17
2023-03-01T22:12:18.056Z,7.97
2023-03-01T22:14:44.718Z,8.00
2023-03-01T22:17:11.463Z,9.20
2023-03-01T22:19:38.216Z,8.80
2023-03-01T22:22:04.948Z,9.47
2023-03-01T22:24:31.615Z,9.03
2023-03-01T22:26:58.292Z,9.30
2023-03-01T22:29:26.937Z,9.17
2023-03-01T22:31:54.771Z,8.90
2023-03-01T22:34:21.917Z,8.87
2023-03-01T22:36:49.805Z,8.87
2023-03-01T22:39:17.817Z,8.80
2023-03-01T22:41:46.031Z,9.80
2023-03-01T22:44:16.918Z,9.40
2023-03-01T22:46:44.284Z,8.40
2023-03-01T22:49:10.958Z,8.93
2023-03-01T22:51:39.570Z,8.93
2023-03-01T22:54:07.006Z,8.33
2023-03-01T22:56:34.635Z,8.17
2023-03-01T22:59:02.829Z,8.30
2023-03-01T23:01:30.560Z,8.73
2023-03-01T23:03:57.726Z,7.80
2023-03-01T23:06:24.605Z,8.07
2023-03-01T23:08:52.573Z,8.77
2023-03-01T23:11:20.030Z,7.77
2023-03-01T23:13:46.922Z,8.00
2023-03-01T23:16:13.943Z,7.80
2023-03-01T23:18:40.960Z,8.13
2023-03-01T23:21:08.564Z,7.87
2023-03-01T23:23:35.311Z,8.80
2023-03-01T23:26:02.182Z,8.03
2023-03-01T23:28:30.054Z,9.10
2023-03-01T23:30:58.181Z,7.90
2023-03-01T23:33:25.557Z,9.07
2023-03-01T23:35:52.503Z,7.70
2023-03-01T23:38:20.690Z,8.03
2023-03-01T23:40:47.546Z,7.90
2023-03-01T23:43:14.441Z,8.40
2023-03-01T23:45:43.142Z,9.30
2023-03-01T23:48:13.515Z,8.27
2023-03-01T23:50:42.063Z,8.77
2023-03-01T23:53:19.322Z,9.27
2023-03-01T23:55:47.497Z,8.43
2023-03-01T23:58:14.141Z,9.33
